Time;durP1;ratioP1;P1;durP2;ratioP2;P2;SDS_P1;SDS_P2;PMS_P1;PMS_P2;Temp;Humidity;BMP_temperature;BMP_pressure;BME280_temperature;BME280_humidity;BME280_pressure;Samples;Min_cycle;Max_cycle;Signal;HPM_P1;HPM_P2
2023/02/27 00:04:53;;;;;;;6.10;4.00;;;;;;;-1.51;79.87;100024.48;437980;1254;141651;-65
2023/02/27 00:14:59;;;;;;;5.30;2.00;;;;;;;-1.53;80.18;100028.30;441439;1255;142514;-64
2023/02/27 00:25:06;;;;;;;3.60;2.10;;;;;;;-1.54;80.00;100029.15;434492;1256;142025;-64
2023/02/27 00:35:13;;;;;;;4.60;2.50;;;;;;;-1.59;80.67;100036.73;435905;1256;141255;-64
2023/02/27 00:45:19;;;;;;;3.40;2.70;;;;;;;-1.65;80.61;100046.40;439853;1253;142230;-65
2023/02/27 00:55:25;;;;;;;8.20;3.70;;;;;;;-1.69;80.92;100042.81;437035;1256;142719;-64
2023/02/27 01:05:32;;;;;;;5.00;3.20;;;;;;;-1.73;81.05;100040.44;434643;1254;141508;-64
2023/02/27 01:15:38;;;;;;;5.90;3.00;;;;;;;-1.76;81.27;100036.52;433995;1256;142852;-64
2023/02/27 01:25:44;;;;;;;5.10;2.70;;;;;;;-1.77;81.47;100034.29;434222;1252;208364;-65
2023/02/27 01:35:49;;;;;;;5.40;3.00;;;;;;;-1.77;81.69;100032.05;433723;1256;143535;-64
2023/02/27 01:45:56;;;;;;;7.70;3.70;;;;;;;-1.78;82.42;100048.02;432555;1254;142599;-64
2023/02/27 01:56:10;;;;;;;7.20;3.30;;;;;;;-1.79;82.73;100056.09;434323;1252;143352;-64
2023/02/27 02:06:16;;;;;;;5.00;3.60;;;;;;;-1.81;83.22;100056.80;437697;1251;142306;-64
2023/02/27 02:16:26;;;;;;;;;;;;;;;-1.83;83.75;100061.44;437731;1254;148068;-64
2023/02/27 02:26:43;;;;;;;3.60;2.70;;;;;;;-1.83;84.43;100060.40;433551;1254;129130;-64
2023/02/27 02:37:11;;;;;;;3.80;2.70;;;;;;;-1.86;84.89;100063.69;435703;1254;143064;-63
2023/02/27 02:47:27;;;;;;;6.80;3.20;;;;;;;-1.86;85.71;100075.02;436213;1253;144035;-65
2023/02/27 02:57:39;;;;;;;6.80;3.70;;;;;;;-1.81;86.06;100081.16;436505;1254;141923;-65
2023/02/27 03:07:50;;;;;;;9.50;4.30;;;;;;;-1.76;86.70;100094.18;436361;1254;143321;-64
2023/02/27 03:18:03;;;;;;;6.20;4.50;;;;;;;-1.70;86.81;100106.85;436232;1254;142356;-63
2023/02/27 03:28:14;;;;;;;8.20;4.40;;;;;;;-1.66;87.29;100120.40;436979;1253;142303;-64
2023/02/27 03:38:27;;;;;;;5.60;4.50;;;;;;;-1.63;87.52;100127.59;433974;1253;143385;-64
2023/02/27 03:48:33;;;;;;;6.90;5.00;;;;;;;-1.61;87.82;100136.34;433062;1254;141424;-64
2023/02/27 03:58:39;;;;;;;5.60;4.10;;;;;;;-1.63;88.18;100149.39;432886;1254;142598;-63
2023/02/27 04:08:58;;;;;;;6.40;4.30;;;;;;;-1.63;88.42;100162.60;436695;1256;143697;-64
2023/02/27 04:19:17;;;;;;;5.40;4.30;;;;;;;-1.65;88.43;100174.30;433927;1254;142157;-64
2023/02/27 04:29:34;;;;;;;4.70;4.80;;;;;;;-1.70;88.48;100177.06;434907;1254;143600;-63
2023/02/27 04:39:50;;;;;;;6.00;4.90;;;;;;;-1.72;89.08;100177.77;442369;1252;142534;-65
2023/02/27 04:49:59;;;;;;;5.80;5.20;;;;;;;-1.74;88.75;100186.18;437593;1256;207590;-64
2023/02/27 05:00:10;;;;;;;5.80;4.70;;;;;;;-1.77;89.03;100191.00;438234;1254;143310;-65
2023/02/27 05:10:24;;;;;;;6.60;5.30;;;;;;;-1.78;89.20;100197.36;435009;1252;142433;-63
2023/02/27 05:20:35;;;;;;;8.70;6.60;;;;;;;-1.84;89.31;100196.00;434955;1253;142488;-64
2023/02/27 05:30:48;;;;;;;8.90;6.60;;;;;;;-1.86;89.57;100204.40;440419;1253;141878;-64
2023/02/27 05:40:58;;;;;;;6.10;5.40;;;;;;;-1.87;89.65;100208.71;435288;1254;142579;-64
2023/02/27 05:51:06;;;;;;;8.20;6.40;;;;;;;-1.83;89.89;100225.01;438602;1253;142084;-64
2023/02/27 06:01:13;;;;;;;10.50;8.50;;;;;;;-1.79;89.88;100246.28;435954;1256;142586;-65
2023/02/27 06:11:19;;;;;;;9.40;7.30;;;;;;;-1.75;89.95;100251.58;435906;1252;142241;-65
2023/02/27 06:21:24;;;;;;;9.80;6.30;;;;;;;-1.70;89.76;100262.73;434092;1253;142065;-65
2023/02/27 06:31:30;;;;;;;9.70;7.40;;;;;;;-1.63;90.00;100274.73;442809;1252;143821;-63
2023/02/27 06:41:36;;;;;;;10.60;8.00;;;;;;;-1.55;89.86;100274.18;433337;1254;144565;-63
2023/02/27 06:51:42;;;;;;;12.90;8.40;;;;;;;-1.37;89.77;100277.22;438752;1252;143327;-64
2023/02/27 07:01:49;;;;;;;9.40;8.40;;;;;;;-1.14;89.71;100290.35;445663;1252;142876;-64
2023/02/27 07:11:55;;;;;;;10.30;9.20;;;;;;;-0.83;89.52;100299.82;436768;1256;142630;-64
2023/02/27 07:22:01;;;;;;;9.20;7.50;;;;;;;-0.50;89.05;100307.35;433896;1253;142944;-64
2023/02/27 07:32:06;;;;;;;9.90;8.90;;;;;;;0.07;88.43;100307.76;433148;1253;143494;-64
2023/02/27 07:42:13;;;;;;;12.00;7.30;;;;;;;0.71;86.33;100310.73;435136;1253;146963;-65
2023/02/27 07:52:18;;;;;;;6.70;5.30;;;;;;;0.58;84.71;100321.37;434873;1253;142166;-65
2023/02/27 08:02:24;;;;;;;7.20;5.70;;;;;;;0.67;84.26;100340.91;439800;1252;141369;-64
2023/02/27 08:12:30;;;;;;;6.30;4.70;;;;;;;0.98;83.90;100341.08;437224;1253;143083;-64
2023/02/27 08:22:36;;;;;;;6.10;5.60;;;;;;;1.62;82.48;100343.66;437093;1253;141163;-63
2023/02/27 08:32:43;;;;;;;5.30;4.50;;;;;;;1.17;80.98;100353.42;440086;1253;142624;-66
2023/02/27 08:42:50;;;;;;;;;;;;;;;0.93;80.79;100363.39;433430;1253;143178;-64
2023/02/27 08:52:56;;;;;;;5.40;3.50;;;;;;;0.62;80.06;100378.19;439280;1252;127882;-65
2023/02/27 09:03:02;;;;;;;7.70;4.00;;;;;;;-0.11;79.34;100392.08;434564;1253;145680;-65
2023/02/27 09:13:08;;;;;;;4.80;2.50;;;;;;;-0.22;79.61;100395.08;433363;1253;142185;-65
2023/02/27 09:23:15;;;;;;;4.90;3.50;;;;;;;0.25;78.29;100405.92;435810;1252;142064;-64
2023/02/27 09:33:21;;;;;;;3.20;2.40;;;;;;;0.57;76.41;100418.73;434494;1253;141489;-65
2023/02/27 09:43:35;;;;;;;2.80;2.10;;;;;;;1.49;75.32;100416.98;433456;1252;141955;-64
2023/02/27 09:53:42;;;;;;;2.60;1.20;;;;;;;2.38;71.55;100419.66;441984;1252;142055;-64
2023/02/27 10:04:03;;;;;;;2.60;1.80;;;;;;;3.25;69.27;100430.88;443278;1252;141495;-65
2023/02/27 10:14:25;;;;;;;3.40;1.70;;;;;;;3.58;67.43;100435.92;443394;1252;141935;-66
2023/02/27 10:24:35;;;;;;;3.10;1.90;;;;;;;3.01;66.50;100451.23;434343;1256;141018;-65
2023/02/27 10:34:44;;;;;;;3.80;1.80;;;;;;;3.04;64.89;100450.33;439879;1252;142270;-65
2023/02/27 10:44:52;;;;;;;2.90;1.30;;;;;;;2.73;62.36;100456.77;442880;1253;140836;-65
2023/02/27 10:55:19;;;;;;;2.20;1.50;;;;;;;1.88;60.98;100458.79;438920;1252;141010;-65
2023/02/27 11:05:28;;;;;;;4.00;1.40;;;;;;;1.84;61.76;100451.75;435121;1253;146386;-64
2023/02/27 11:15:36;;;;;;;2.90;1.50;;;;;;;1.96;61.27;100451.41;437337;1253;142622;-64
2023/02/27 11:25:45;;;;;;;1.70;1.30;;;;;;;1.47;60.11;100459.14;449794;1253;140898;-65
2023/02/27 11:35:54;;;;;;;6.00;1.90;;;;;;;1.22;59.31;100445.30;450354;1252;142851;-64
2023/02/27 11:46:08;;;;;;;3.70;2.00;;;;;;;1.46;59.74;100429.65;449497;1250;142018;-65
2023/02/27 11:56:37;;;;;;;3.10;1.00;;;;;;;2.22;59.33;100419.41;450416;1252;142213;-65
2023/02/27 12:06:51;;;;;;;1.70;1.30;;;;;;;2.02;58.20;100421.79;449460;1252;142423;-65
2023/02/27 12:17:03;;;;;;;2.80;1.50;;;;;;;1.45;57.47;100436.05;446096;1252;142511;-65
2023/02/27 12:27:18;;;;;;;3.20;1.10;;;;;;;1.16;56.69;100438.30;450278;1253;140107;-65
2023/02/27 12:37:26;;;;;;;1.80;1.00;;;;;;;1.64;57.56;100426.48;449569;1253;142638;-65
2023/02/27 12:47:42;;;;;;;0.70;0.70;;;;;;;1.81;57.17;100438.51;450382;1252;141973;-63
2023/02/27 12:58:13;;;;;;;2.40;1.40;;;;;;;1.62;56.56;100449.82;449626;1253;141482;-64
2023/02/27 13:08:32;;;;;;;1.50;1.00;;;;;;;1.52;56.47;100463.05;450290;1253;142179;-64
2023/02/27 13:18:44;;;;;;;3.00;2.30;;;;;;;1.68;55.99;100456.47;450405;1253;141766;-64
2023/02/27 13:28:51;;;;;;;2.80;1.50;;;;;;;1.36;56.33;100463.93;449942;1252;209112;-64
2023/02/27 13:38:57;;;;;;;5.40;1.90;;;;;;;1.03;57.40;100476.72;450324;1252;142001;-64
2023/02/27 13:49:25;;;;;;;3.70;2.50;;;;;;;0.87;58.06;100482.40;449585;1252;142733;-64
2023/02/27 13:59:36;;;;;;;2.90;2.60;;;;;;;0.62;58.46;100486.25;450385;1252;140258;-65
2023/02/27 14:09:45;;;;;;;5.20;3.60;;;;;;;0.52;58.12;100482.69;449940;1253;141909;-63
2023/02/27 14:19:59;;;;;;;3.60;3.10;;;;;;;0.49;58.00;100485.14;449979;1253;142602;-63
2023/02/27 14:30:21;;;;;;;3.90;2.30;;;;;;;0.51;57.86;100495.13;450149;1253;141820;-63
2023/02/27 14:40:33;;;;;;;2.40;1.50;;;;;;;0.34;58.18;100506.27;449641;1253;142493;-63
2023/02/27 14:50:41;;;;;;;3.70;2.30;;;;;;;0.12;58.96;100511.06;450378;1252;140811;-63
2023/02/27 15:00:56;;;;;;;5.30;3.20;;;;;;;-0.05;59.35;100521.66;449770;1252;161636;-63
2023/02/27 15:11:03;;;;;;;2.60;1.90;;;;;;;-0.14;59.55;100527.39;450414;1252;143940;-63
2023/02/27 15:21:15;;;;;;;1.80;1.30;;;;;;;-0.19;59.12;100531.71;450473;1252;141935;-63
2023/02/27 15:31:25;;;;;;;5.20;2.40;;;;;;;-0.26;59.19;100545.00;449721;1253;142728;-63
2023/02/27 15:41:32;;;;;;;5.60;3.60;;;;;;;-0.35;59.68;100554.14;450503;1250;141481;-64
2023/02/27 15:51:39;;;;;;;3.90;2.20;;;;;;;-0.42;59.85;100563.10;450371;1253;199981;-64
2023/02/27 16:01:48;;;;;;;4.70;2.40;;;;;;;-0.50;59.92;100575.88;449997;1253;210312;-63
2023/02/27 16:12:11;;;;;;;4.40;3.00;;;;;;;-0.57;59.71;100596.70;450473;1252;140883;-63
2023/02/27 16:22:19;;;;;;;4.60;3.10;;;;;;;-0.64;59.39;100604.79;449730;1253;143049;-63
2023/02/27 16:32:29;;;;;;;7.10;4.40;;;;;;;-0.66;59.75;100611.33;450320;1253;143566;-63
2023/02/27 16:42:35;;;;;;;9.90;6.70;;;;;;;-0.66;59.91;100629.57;450453;1252;142168;-63
2023/02/27 16:52:41;;;;;;;9.20;5.40;;;;;;;-0.67;60.13;100642.11;449577;1252;142235;-64
2023/02/27 17:02:47;;;;;;;9.00;4.80;;;;;;;-0.68;60.45;100656.23;449681;1256;142556;-64
2023/02/27 17:12:53;;;;;;;9.50;5.00;;;;;;;-0.69;60.52;100666.54;448211;1253;141856;-67
2023/02/27 17:22:59;;;;;;;9.00;4.60;;;;;;;-0.71;60.85;100673.08;450446;1253;141437;-63
2023/02/27 17:33:04;;;;;;;15.20;6.90;;;;;;;-0.73;60.98;100677.02;450433;1253;141503;-64
2023/02/27 17:43:10;;;;;;;9.80;6.40;;;;;;;-0.70;61.22;100684.77;449629;1254;141675;-63
2023/02/27 17:53:16;;;;;;;11.70;6.40;;;;;;;-0.72;61.41;100690.61;450410;1253;142270;-63
2023/02/27 18:03:22;;;;;;;7.70;4.90;;;;;;;-0.75;61.67;100686.99;450293;1252;141559;-63
2023/02/27 18:13:28;;;;;;;19.80;13.50;;;;;;;-0.75;61.77;100690.27;449529;1253;142827;-64
2023/02/27 18:23:34;;;;;;;11.30;7.80;;;;;;;-0.77;62.04;100697.83;450381;1256;142479;-64
2023/02/27 18:33:40;;;;;;;6.10;4.70;;;;;;;-0.82;62.16;100701.27;449674;1254;141926;-63
2023/02/27 18:43:46;;;;;;;8.60;4.10;;;;;;;-0.87;62.34;100703.49;434168;1256;195546;-64
2023/02/27 18:53:52;;;;;;;11.40;7.20;;;;;;;-0.95;62.60;100708.99;450263;1253;143233;-64
2023/02/27 19:04:02;;;;;;;;;;;;;;;-1.06;62.58;100717.23;449542;1253;141836;-64
2023/02/27 19:14:11;;;;;;;8.60;4.90;;;;;;;-1.19;63.11;100729.92;450501;1252;127847;-63
2023/02/27 19:24:17;;;;;;;7.80;5.00;;;;;;;-1.33;62.87;100732.44;450306;1253;140725;-63
2023/02/27 19:34:22;;;;;;;5.90;4.30;;;;;;;-1.44;62.57;100734.46;449525;1253;141904;-64
2023/02/27 19:44:28;;;;;;;8.70;5.00;;;;;;;-1.57;62.90;100736.48;446361;1254;144071;-64
2023/02/27 19:54:34;;;;;;;13.10;7.90;;;;;;;-1.67;63.47;100742.77;444088;1254;141943;-63
2023/02/27 20:04:39;;;;;;;11.30;6.70;;;;;;;-1.78;63.24;100755.60;449205;1253;141876;-64
2023/02/27 20:14:45;;;;;;;7.20;4.40;;;;;;;-1.95;62.54;100761.52;450091;1252;140951;-64
2023/02/27 20:24:51;;;;;;;7.00;5.10;;;;;;;-2.26;62.47;100763.70;449451;1251;141987;-64
2023/02/27 20:34:57;;;;;;;8.10;5.50;;;;;;;-2.64;62.74;100767.15;450310;1252;143919;-64
2023/02/27 20:45:02;;;;;;;10.30;5.40;;;;;;;-2.96;63.35;100774.72;450084;1254;143119;-63
2023/02/27 20:55:10;;;;;;;9.60;6.60;;;;;;;-3.23;63.93;100783.00;449192;1253;141719;-64
2023/02/27 21:05:16;;;;;;;11.40;8.00;;;;;;;-3.40;64.62;100792.73;450029;1253;141352;-64
2023/02/27 21:15:22;;;;;;;11.80;7.50;;;;;;;-3.46;65.33;100798.96;449641;1252;143549;-64
2023/02/27 21:25:28;;;;;;;15.40;8.40;;;;;;;-3.36;65.73;100801.48;449239;1253;143173;-64
2023/02/27 21:35:34;;;;;;;13.20;7.70;;;;;;;-3.17;65.72;100800.70;435673;1254;143535;-64
2023/02/27 21:45:45;;;;;;;12.10;8.80;;;;;;;-3.13;65.61;100804.17;450232;1253;143461;-63
2023/02/27 21:55:53;;;;;;;9.40;6.90;;;;;;;-3.33;65.52;100809.75;447059;1252;142775;-63
2023/02/27 22:05:59;;;;;;;12.10;7.70;;;;;;;-3.51;65.65;100810.02;450300;1252;143277;-64
2023/02/27 22:16:10;;;;;;;11.40;7.50;;;;;;;-3.69;65.72;100819.37;449436;1252;142016;-63
2023/02/27 22:26:18;;;;;;;16.10;9.20;;;;;;;-3.96;66.28;100830.27;450256;1252;143550;-64
2023/02/27 22:36:27;;;;;;;11.60;8.00;;;;;;;-4.10;66.86;100825.42;450074;1252;203444;-64
2023/02/27 22:46:35;;;;;;;20.90;10.50;;;;;;;-4.24;67.41;100835.30;449412;1252;142878;-64
2023/02/27 22:56:41;;;;;;;15.70;9.60;;;;;;;-4.17;67.75;100846.02;450181;1252;144142;-63
2023/02/27 23:06:47;;;;;;;16.80;11.70;;;;;;;-4.05;67.87;100850.48;449402;1252;152555;-64
2023/02/27 23:16:52;;;;;;;22.40;12.20;;;;;;;-4.14;68.06;100860.10;450243;1251;142434;-64
2023/02/27 23:26:59;;;;;;;22.70;13.50;;;;;;;-4.12;68.62;100870.20;450178;1253;142806;-64
2023/02/27 23:37:05;;;;;;;17.40;12.00;;;;;;;-3.86;68.63;100871.32;449418;1252;142695;-63
2023/02/27 23:57:34;;;;;;;13.40;7.50;;;;;;;-3.68;68.49;100867.65;450116;1252;144392;-63
